メインページ
METAR-TAF:

METAR-TAF

空港 :

ポルト・アレグレ, リオグランデ・ド・スル州, ブラジル

サルガド・フィーリョ国際空港

緯度: 30-00S, 経度: 051-11W, 海抜: 3m

現時点の気象観測

当レポートは23分前の21:00(UTC)に作成
東/南東の風 13kt
気温 22°C
湿度 73%
気圧 1011 hPa
視程10km以上
1,500メートル以下は雲なし、積乱雲なし

METAR: SBPA 202100Z 11013KT CAVOK 22/17 Q1011

時間: 19:23 (21:23 UTC)

予報

当レポートは5時間53分前の15:30(UTC)に作成
予報は20日の 18時(UTC)から 21日の 18時(UTC)まで有効
東/南東の風 12kt
視程10km以上
1,500メートル以下は雲なし、積乱雲なし
21日の 02時(UTC)から 21日の 04時(UTC)まで徐々に
東/南東の風 7kt
視程10km以上
高度3000ftの雲は散在している
確率 40% :
21日の 09時(UTC)から 21日の 13時(UTC)まで一時的に
視程: 4000m
高度800ftの千切れ雲あり
高度3500ftの雲はほとんどない, 積乱雲.
激しい雷雨, 雨
21日の 13時(UTC)から 21日の 15時(UTC)まで徐々に
東/南東の風 12kt
高度3000ftの千切れ雲あり

TAF: SBPA 201530Z 2018/2118 11012KT CAVOK TX24/2018Z TN18/2108Z BECMG 2102/2104 11007KT 9999 SCT030 PROB40 TEMPO 2109/2113 4000 TSRA BKN008 FEW035CB BECMG 2113/2115 12012KT BKN030 RMK PDW

4,000以上の空港の気象観測と天気予報(METAR報とTAF報)

利用可能な観測所は地図上に黄色い丸と赤い丸で示す。

丸の上にカーソルを重ねると観測所名を参照できる。

次にクリックすると気象観測と天気予報を参照できる。

マップの切り替え:黒色「×」印の緑ボタンをクリックして拡大、「-」印の緑ボタンをクリックして縮小、緑色の三角印をクリックして隣りの地図に切り替え


METAR-TAF: